Time;durP1;ratioP1;P1;durP2;ratioP2;P2;SDS_P1;SDS_P2;PMS_P1;PMS_P2;Temp;Humidity;BMP_temperature;BMP_pressure;BME280_temperature;BME280_humidity;BME280_pressure;Samples;Min_cycle;Max_cycle;Signal;HPM_P1;HPM_P2
2023/07/26 00:00:34;;;;;;;2.67;1.75;;;17.50;52.70;;;;;;5086439;28;20706;-76
2023/07/26 00:03:00;;;;;;;2.38;1.50;;;17.40;52.70;;;;;;5072741;28;20067;-70
2023/07/26 00:05:26;;;;;;;2.05;1.30;;;17.40;52.80;;;;;;5089619;28;20036;-67
2023/07/26 00:07:53;;;;;;;1.92;1.42;;;17.40;52.80;;;;;;5079409;28;20039;-66
2023/07/26 00:10:19;;;;;;;3.85;1.80;;;17.30;52.80;;;;;;5081890;28;20047;-66
2023/07/26 00:12:45;;;;;;;1.95;1.25;;;17.30;52.90;;;;;;5083359;28;20032;-66
2023/07/26 00:15:11;;;;;;;1.90;1.30;;;17.20;52.80;;;;;;5095592;28;20515;-70
2023/07/26 00:17:37;;;;;;;3.88;1.20;;;17.20;52.90;;;;;;5097818;28;20032;-67
2023/07/26 00:20:04;;;;;;;1.88;1.45;;;17.20;53.00;;;;;;5098271;28;20058;-66
2023/07/26 00:22:30;;;;;;;4.43;2.08;;;17.10;52.90;;;;;;5072402;28;20059;-66
2023/07/26 00:24:59;;;;;;;2.88;1.13;;;17.10;53.00;;;;;;5093278;28;20043;-66
2023/07/26 00:27:25;;;;;;;2.00;1.50;;;17.00;52.90;;;;;;5086251;28;20089;-67
2023/07/26 00:29:51;;;;;;;1.73;1.30;;;17.00;53.00;;;;;;5078857;28;20484;-66
2023/07/26 00:32:17;;;;;;;1.98;1.23;;;16.90;52.90;;;;;;5081456;28;20439;-66
2023/07/26 00:34:43;;;;;;;1.75;1.27;;;16.90;53.00;;;;;;5081129;28;20052;-66
2023/07/26 00:37:09;;;;;;;2.78;1.83;;;16.80;52.90;;;;;;5070427;28;20040;-71
2023/07/26 00:39:35;;;;;;;2.15;1.40;;;16.80;53.00;;;;;;5078468;28;20077;-66
2023/07/26 00:42:01;;;;;;;4.32;1.83;;;16.70;52.90;;;;;;5084546;28;20040;-68
2023/07/26 00:44:27;;;;;;;2.30;1.80;;;16.70;53.10;;;;;;5072545;28;20543;-65
2023/07/26 00:46:55;;;;;;;5.68;1.45;;;16.60;53.00;;;;;;5078286;28;20063;-74
2023/07/26 00:49:21;;;;;;;1.88;1.35;;;16.60;53.10;;;;;;5088591;28;20424;-67
2023/07/26 00:51:48;;;;;;;3.58;1.75;;;16.50;53.00;;;;;;5079009;28;20040;-68
2023/07/26 00:54:19;;;;;;;2.90;1.60;;;16.50;53.10;;;;;;5082353;28;20038;-72
2023/07/26 00:56:46;;;;;;;2.13;1.50;;;16.50;53.20;;;;;;5085767;28;20036;-77
2023/07/26 00:59:14;;;;;;;3.28;1.27;;;16.40;53.10;;;;;;5068038;28;20039;-69
2023/07/26 01:01:40;;;;;;;2.08;1.40;;;16.40;53.20;;;;;;5090954;28;20695;-67
2023/07/26 01:04:06;;;;;;;1.55;1.45;;;16.30;53.10;;;;;;5080526;28;20047;-70
2023/07/26 01:06:50;;;;;;;2.47;1.13;;;16.30;53.20;;;;;;5071969;28;20032;-65
2023/07/26 01:09:37;;;;;;;2.47;1.38;;;16.30;53.40;;;;;;5090818;28;20059;-70
2023/07/26 01:12:03;;;;;;;2.17;1.63;;;16.20;53.30;;;;;;5080261;28;20040;-70
2023/07/26 01:14:44;;;;;;;2.15;1.45;;;16.20;53.20;;;;;;5089356;28;20032;-70
2023/07/26 01:17:10;;;;;;;1.90;1.50;;;16.20;53.40;;;;;;5080575;28;20040;-68
2023/07/26 01:19:36;;;;;;;3.95;2.20;;;16.10;53.20;;;;;;5079361;28;20491;-69
2023/07/26 01:22:02;;;;;;;1.75;1.50;;;16.10;53.40;;;;;;5076388;28;20043;-72
2023/07/26 01:24:28;;;;;;;2.22;1.50;;;16.00;53.30;;;;;;5079311;28;20035;-71
2023/07/26 01:26:54;;;;;;;1.85;1.48;;;16.00;53.30;;;;;;5077615;28;20064;-67
2023/07/26 01:29:20;;;;;;;2.22;1.83;;;16.00;53.50;;;;;;5068833;28;20063;-68
2023/07/26 01:31:47;;;;;;;2.47;2.00;;;15.90;53.30;;;;;;5077161;28;20039;-67
2023/07/26 01:34:14;;;;;;;1.80;1.42;;;15.90;53.50;;;;;;5079727;28;20048;-65
2023/07/26 01:36:40;;;;;;;2.53;2.08;;;15.80;53.30;;;;;;5076746;28;20171;-72
2023/07/26 01:39:08;;;;;;;2.55;1.48;;;15.80;53.40;;;;;;5079065;28;20036;-68
2023/07/26 01:41:35;;;;;;;2.10;1.52;;;15.80;53.50;;;;;;5084979;28;20024;-66
2023/07/26 01:44:01;;;;;;;2.13;1.40;;;15.70;53.40;;;;;;5077027;28;20098;-74
2023/07/26 01:46:29;;;;;;;1.65;1.42;;;15.70;53.50;;;;;;5085049;28;20126;-79
2023/07/26 01:48:57;;;;;;;2.65;1.30;;;15.70;53.50;;;;;;5090015;28;20028;-74
2023/07/26 01:51:23;;;;;;;1.60;1.30;;;15.60;53.40;;;;;;5093013;28;20047;-66
2023/07/26 01:53:49;;;;;;;2.35;1.70;;;15.60;53.50;;;;;;5083215;28;20028;-67
2023/07/26 01:56:16;;;;;;;2.92;1.63;;;15.50;53.40;;;;;;5082784;28;20073;-65
2023/07/26 01:58:42;;;;;;;2.15;1.42;;;15.50;53.50;;;;;;5081415;28;20848;-68
2023/07/26 02:01:08;;;;;;;1.30;1.20;;;15.50;53.60;;;;;;5092626;28;20070;-67
2023/07/26 02:03:34;;;;;;;1.90;1.23;;;15.40;54.10;;;;;;5098155;28;20075;-78
2023/07/26 02:06:00;;;;;;;1.75;1.30;;;15.40;53.60;;;;;;5096919;28;20144;-71
2023/07/26 02:08:26;;;;;;;1.40;1.20;;;15.40;53.60;;;;;;5054562;28;20610;-68
2023/07/26 02:10:53;;;;;;;1.70;1.60;;;15.30;53.50;;;;;;5083626;28;20185;-77
2023/07/26 02:13:19;;;;;;;1.77;1.30;;;15.30;53.50;;;;;;5086404;28;20035;-76
2023/07/26 02:15:46;;;;;;;2.10;1.25;;;15.30;53.60;;;;;;5055398;28;20115;-71
2023/07/26 02:18:13;;;;;;;2.40;1.52;;;15.30;53.70;;;;;;5082633;28;20533;-77
2023/07/26 02:20:39;;;;;;;1.83;1.20;;;15.20;53.50;;;;;;5080518;28;20380;-71
2023/07/26 02:23:06;;;;;;;1.25;1.00;;;15.20;53.60;;;;;;5074062;28;20032;-76
2023/07/26 02:25:32;;;;;;;2.60;1.30;;;15.10;53.70;;;;;;5083133;28;20854;-74
2023/07/26 02:27:58;;;;;;;2.67;1.48;;;15.10;53.60;;;;;;5084172;28;20028;-69
2023/07/26 02:30:24;;;;;;;1.88;1.23;;;15.10;53.60;;;;;;5081230;28;20023;-70
2023/07/26 02:32:50;;;;;;;2.20;1.23;;;15.00;53.50;;;;;;5084103;28;20032;-68
2023/07/26 02:35:16;;;;;;;1.60;1.30;;;15.00;53.60;;;;;;5083781;28;20113;-71
2023/07/26 02:37:42;;;;;;;0.95;0.90;;;15.00;53.60;;;;;;5085834;28;20032;-66
2023/07/26 02:40:09;;;;;;;1.48;1.20;;;14.90;53.50;;;;;;5083343;28;20797;-67
2023/07/26 02:42:35;;;;;;;2.72;1.30;;;14.90;53.60;;;;;;5077745;28;20036;-66
2023/07/26 02:45:01;;;;;;;1.67;1.10;;;14.90;54.20;;;;;;5085004;28;20036;-66
2023/07/26 02:47:31;;;;;;;1.30;1.00;;;14.80;53.50;;;;;;5082148;28;20591;-67
2023/07/26 02:50:00;;;;;;;6.43;1.48;;;14.80;53.60;;;;;;5082121;28;20635;-68
2023/07/26 02:52:27;;;;;;;1.70;1.23;;;14.80;53.70;;;;;;5073238;28;20025;-68
2023/07/26 02:54:53;;;;;;;1.83;1.23;;;14.70;53.60;;;;;;5080033;28;20031;-67
2023/07/26 02:57:19;;;;;;;1.80;1.45;;;14.70;53.60;;;;;;5081912;28;20533;-66
2023/07/26 02:59:45;;;;;;;1.38;1.27;;;14.60;53.60;;;;;;5084376;28;20506;-67
2023/07/26 03:02:11;;;;;;;1.30;1.10;;;14.60;53.70;;;;;;5073541;28;20041;-72
2023/07/26 03:04:37;;;;;;;1.77;1.33;;;14.60;53.70;;;;;;5089331;28;20039;-66
2023/07/26 03:07:04;;;;;;;2.53;2.08;;;14.50;53.60;;;;;;5073225;28;20064;-69
2023/07/26 03:09:30;;;;;;;2.13;1.60;;;14.50;53.70;;;;;;5080702;28;20028;-67
2023/07/26 03:11:56;;;;;;;2.50;1.20;;;14.50;53.80;;;;;;5090466;28;20039;-69
2023/07/26 03:14:22;;;;;;;1.92;1.33;;;14.40;53.70;;;;;;5093511;28;20062;-73
2023/07/26 03:16:48;;;;;;;1.30;1.20;;;14.40;53.80;;;;;;5085619;28;20109;-70
2023/07/26 03:19:14;;;;;;;2.25;1.77;;;14.40;53.90;;;;;;5098035;28;20101;-70
2023/07/26 03:21:40;;;;;;;2.03;1.40;;;14.40;53.90;;;;;;5094091;28;20050;-70
2023/07/26 03:24:06;;;;;;;2.60;1.50;;;14.30;53.80;;;;;;5093499;28;20028;-66
2023/07/26 03:26:32;;;;;;;3.05;1.58;;;14.30;53.80;;;;;;5091124;28;20024;-68
2023/07/26 03:28:58;;;;;;;2.63;1.50;;;14.30;53.90;;;;;;5101565;28;20387;-69
2023/07/26 03:31:24;;;;;;;3.08;1.88;;;14.20;53.80;;;;;;5098145;28;20030;-68
2023/07/26 03:33:50;;;;;;;1.65;1.35;;;14.20;53.90;;;;;;5099871;28;20043;-73
2023/07/26 03:36:16;;;;;;;1.48;1.33;;;14.20;53.90;;;;;;5092487;28;20739;-77
2023/07/26 03:38:42;;;;;;;2.88;1.90;;;14.20;54.00;;;;;;5097438;28;20138;-70
2023/07/26 03:41:08;;;;;;;2.13;1.65;;;14.10;53.90;;;;;;5094233;28;20612;-68
2023/07/26 03:43:34;;;;;;;2.88;1.80;;;14.10;54.00;;;;;;5079820;28;20055;-65
2023/07/26 03:46:00;;;;;;;2.63;1.95;;;14.10;54.00;;;;;;5099491;28;20035;-65
2023/07/26 03:48:27;;;;;;;4.10;1.95;;;14.00;53.90;;;;;;5095505;28;20620;-65
2023/07/26 03:50:53;;;;;;;7.63;2.75;;;14.00;54.00;;;;;;5098214;28;20658;-64
2023/07/26 03:53:19;;;;;;;2.53;1.70;;;14.00;54.00;;;;;;5092773;28;20042;-64
2023/07/26 03:55:45;;;;;;;2.70;1.42;;;14.00;54.10;;;;;;5097754;28;20031;-66
2023/07/26 03:58:11;;;;;;;3.10;2.03;;;13.90;54.00;;;;;;5097871;28;20112;-65
2023/07/26 04:00:38;;;;;;;3.95;2.17;;;13.90;54.10;;;;;;5094716;28;20059;-66
2023/07/26 04:03:04;;;;;;;2.65;1.73;;;13.90;54.20;;;;;;5088887;28;20044;-67
2023/07/26 04:05:30;;;;;;;4.18;1.52;;;13.80;54.00;;;;;;5077387;28;20082;-66
2023/07/26 04:07:56;;;;;;;2.60;1.98;;;13.80;54.10;;;;;;5075694;28;20071;-66
2023/07/26 04:10:22;;;;;;;2.05;1.73;;;13.80;54.20;;;;;;5094100;28;20035;-70
2023/07/26 04:12:48;;;;;;;3.50;1.90;;;13.70;54.10;;;;;;5093328;28;20038;-66
2023/07/26 04:15:14;;;;;;;2.17;1.77;;;13.70;54.20;;;;;;5089516;28;20028;-67
2023/07/26 04:17:40;;;;;;;2.35;1.67;;;13.70;54.30;;;;;;5083179;28;20484;-70
2023/07/26 04:20:06;;;;;;;2.30;1.67;;;13.70;54.30;;;;;;5079768;28;20036;-65
2023/07/26 04:22:32;;;;;;;2.15;1.80;;;13.60;54.20;;;;;;5078263;28;20044;-85
2023/07/26 04:24:58;;;;;;;2.60;1.38;;;13.60;54.30;;;;;;5092202;28;20032;-68
2023/07/26 04:27:24;;;;;;;2.03;1.33;;;13.60;54.30;;;;;;5091601;28;20054;-72
2023/07/26 04:29:50;;;;;;;2.58;1.83;;;13.60;54.30;;;;;;5086881;28;20029;-75
2023/07/26 04:32:17;;;;;;;3.20;1.67;;;13.60;54.40;;;;;;5079686;28;20054;-77
2023/07/26 04:34:43;;;;;;;2.65;2.13;;;13.50;54.20;;;;;;5085931;28;20052;-72
2023/07/26 04:37:09;;;;;;;2.55;1.80;;;13.50;54.30;;;;;;5098147;28;20047;-76
2023/07/26 04:39:35;;;;;;;2.05;1.65;;;13.50;54.30;;;;;;5088080;28;20572;-72
2023/07/26 04:42:01;;;;;;;2.25;1.83;;;13.50;54.40;;;;;;5090973;28;20134;-73
2023/07/26 04:44:26;;;;;;;1.95;1.75;;;13.50;54.40;;;;;;5090899;28;20036;-76
2023/07/26 04:46:52;;;;;;;3.85;1.98;;;13.40;54.20;;;;;;5090286;28;20036;-66
2023/07/26 04:49:18;;;;;;;3.05;1.60;;;13.40;54.30;;;;;;5088812;28;20738;-69
2023/07/26 04:51:44;;;;;;;2.78;2.25;;;13.40;54.30;;;;;;5083505;27;20028;-76
2023/07/26 04:54:10;;;;;;;2.80;1.67;;;13.40;54.40;;;;;;5083667;28;20693;-79
2023/07/26 04:56:36;;;;;;;4.55;1.52;;;13.40;54.40;;;;;;5087691;28;20024;-67
2023/07/26 04:59:02;;;;;;;5.70;1.67;;;13.40;54.40;;;;;;5083179;28;20032;-75
2023/07/26 05:01:28;;;;;;;2.45;2.22;;;13.50;54.60;;;;;;5075734;28;20036;-68
2023/07/26 05:03:54;;;;;;;2.78;1.90;;;13.50;54.70;;;;;;5077167;28;20502;-72
2023/07/26 05:06:20;;;;;;;2.72;1.88;;;13.50;54.80;;;;;;5081828;28;20547;-67
2023/07/26 05:08:47;;;;;;;2.03;1.65;;;13.50;54.70;;;;;;5072403;28;20674;-78
2023/07/26 05:11:14;;;;;;;2.03;1.45;;;13.50;54.70;;;;;;5087058;28;20159;-68
2023/07/26 05:13:40;;;;;;;2.45;1.70;;;13.50;54.70;;;;;;5079399;28;20036;-73
2023/07/26 05:16:06;;;;;;;1.92;1.70;;;13.50;54.60;;;;;;5079658;28;20203;-72
2023/07/26 05:18:32;;;;;;;2.85;1.60;;;13.60;54.80;;;;;;5083806;28;20116;-79
2023/07/26 05:20:58;;;;;;;1.95;1.60;;;13.60;54.80;;;;;;5083473;28;20122;-70
2023/07/26 05:23:24;;;;;;;1.40;1.13;;;13.60;54.70;;;;;;5079575;28;20131;-75
2023/07/26 05:25:50;;;;;;;2.78;1.70;;;13.70;54.90;;;;;;5088628;28;20036;-73
2023/07/26 05:28:16;;;;;;;2.35;1.75;;;13.80;55.00;;;;;;5083596;28;20447;-71
2023/07/26 05:30:42;;;;;;;2.65;1.80;;;13.80;54.90;;;;;;5088176;28;20115;-68
2023/07/26 05:33:09;;;;;;;2.33;1.80;;;13.90;55.10;;;;;;5073198;28;20043;-71
2023/07/26 05:35:35;;;;;;;4.20;1.90;;;14.00;55.60;;;;;;5065123;28;20665;-72
2023/07/26 05:38:01;;;;;;;3.47;2.00;;;14.10;55.90;;;;;;5089429;28;20045;-71
2023/07/26 05:40:27;;;;;;;2.65;2.03;;;14.20;56.20;;;;;;5078385;28;20028;-75
2023/07/26 05:42:53;;;;;;;3.50;1.98;;;14.30;56.40;;;;;;5085242;28;20355;-67
2023/07/26 05:45:19;;;;;;;2.65;2.33;;;14.40;56.60;;;;;;5087475;28;20499;-67
2023/07/26 05:47:46;;;;;;;3.08;2.20;;;14.60;57.00;;;;;;5083475;28;20071;-71
2023/07/26 05:50:12;;;;;;;3.85;2.50;;;14.70;57.20;;;;;;5077518;28;20036;-68
2023/07/26 05:52:38;;;;;;;4.22;2.42;;;14.80;57.60;;;;;;5077849;28;20081;-68
2023/07/26 05:55:06;;;;;;;3.75;3.00;;;15.00;57.70;;;;;;5075168;28;20058;-68
2023/07/26 05:57:32;;;;;;;4.18;2.88;;;15.10;57.80;;;;;;5085898;28;20058;-70
2023/07/26 05:59:59;;;;;;;3.63;2.40;;;15.30;58.10;;;;;;5082693;28;20103;-70
2023/07/26 06:02:25;;;;;;;3.33;2.47;;;15.40;58.30;;;;;;5073857;28;20117;-68
2023/07/26 06:04:52;;;;;;;4.38;2.35;;;15.50;58.40;;;;;;5072091;28;20558;-72
2023/07/26 06:07:19;;;;;;;3.75;1.95;;;15.70;58.70;;;;;;5071461;28;20355;-70
2023/07/26 06:09:45;;;;;;;3.47;2.35;;;15.90;59.00;;;;;;5076657;28;20354;-68
2023/07/26 06:12:11;;;;;;;3.65;3.05;;;16.00;59.00;;;;;;5077592;28;20264;-70
2023/07/26 06:14:38;;;;;;;3.60;2.60;;;16.10;59.00;;;;;;5077593;28;20038;-68
2023/07/26 06:17:04;;;;;;;3.85;2.90;;;16.30;59.30;;;;;;5079419;28;20128;-69
2023/07/26 06:19:30;;;;;;;4.22;2.75;;;16.40;59.40;;;;;;5082376;28;20454;-75
2023/07/26 06:21:56;;;;;;;4.05;2.78;;;16.50;59.60;;;;;;5078138;28;20094;-68
2023/07/26 06:24:23;;;;;;;4.60;3.00;;;16.50;59.60;;;;;;5077418;28;20565;-68
2023/07/26 06:26:51;;;;;;;3.92;2.63;;;16.60;59.80;;;;;;5081150;28;20419;-71
2023/07/26 06:29:18;;;;;;;3.03;2.50;;;16.70;60.20;;;;;;5081587;28;20039;-69
2023/07/26 06:31:44;;;;;;;4.82;2.15;;;16.70;60.60;;;;;;5080484;28;20111;-67
2023/07/26 06:34:09;;;;;;;3.58;2.00;;;16.80;61.10;;;;;;5079913;28;20443;-71
2023/07/26 06:36:35;;;;;;;2.67;1.95;;;17.00;62.20;;;;;;5075479;28;20057;-68
2023/07/26 06:39:02;;;;;;;2.65;2.03;;;17.10;61.80;;;;;;5079067;28;20495;-75
2023/07/26 06:41:28;;;;;;;3.42;2.50;;;17.30;62.10;;;;;;5073554;28;20117;-66
2023/07/26 06:43:54;;;;;;;3.15;2.38;;;17.60;62.50;;;;;;5078742;28;20031;-73
2023/07/26 06:46:20;;;;;;;3.05;2.25;;;18.00;62.70;;;;;;5079066;28;20036;-73
2023/07/26 06:48:46;;;;;;;2.95;2.38;;;18.50;62.60;;;;;;5071665;28;20040;-73
2023/07/26 06:51:12;;;;;;;3.20;2.40;;;19.10;62.50;;;;;;5082561;28;20435;-71
2023/07/26 06:53:38;;;;;;;3.00;2.30;;;19.70;62.10;;;;;;5085664;28;20055;-76
2023/07/26 06:56:05;;;;;;;2.80;2.05;;;20.30;61.80;;;;;;5083903;28;20053;-71
2023/07/26 06:58:30;;;;;;;3.75;2.78;;;20.90;61.40;;;;;;5093750;28;20066;-74
2023/07/26 07:00:58;;;;;;;3.17;2.40;;;21.40;60.90;;;;;;5092108;28;20086;-74
2023/07/26 07:03:24;;;;;;;5.30;3.58;;;22.00;60.70;;;;;;5083462;28;20064;-74
2023/07/26 07:05:50;;;;;;;5.32;2.22;;;22.50;60.20;;;;;;5089814;28;20072;-69
2023/07/26 07:08:16;;;;;;;4.20;2.67;;;23.00;59.80;;;;;;5096072;27;20116;-74
2023/07/26 07:10:42;;;;;;;4.60;2.45;;;23.50;59.40;;;;;;5079461;28;20354;-70
2023/07/26 07:13:08;;;;;;;3.92;3.00;;;23.90;58.90;;;;;;5087678;28;20034;-75
2023/07/26 07:15:34;;;;;;;4.05;2.75;;;24.30;58.40;;;;;;5089346;28;20141;-74
2023/07/26 07:18:00;;;;;;;4.55;2.28;;;24.80;58.00;;;;;;5086081;28;20118;-74
2023/07/26 07:20:26;;;;;;;3.30;2.38;;;25.20;57.20;;;;;;5086088;28;20032;-71
2023/07/26 07:22:52;;;;;;;3.47;2.38;;;25.50;56.20;;;;;;5081919;28;20044;-70
2023/07/26 07:25:18;;;;;;;3.60;2.88;;;25.60;55.60;;;;;;5090924;28;20042;-72
2023/07/26 07:27:44;;;;;;;3.83;2.42;;;25.70;55.40;;;;;;5081852;28;20039;-72
2023/07/26 07:30:11;;;;;;;4.75;2.80;;;25.90;54.90;;;;;;5085530;28;20088;-79
2023/07/26 07:32:37;;;;;;;4.45;3.28;;;25.90;54.30;;;;;;5079472;28;20571;-71
2023/07/26 07:35:05;;;;;;;3.95;2.50;;;25.70;54.10;;;;;;5081802;28;20082;-69
2023/07/26 07:37:31;;;;;;;8.00;3.72;;;25.50;54.20;;;;;;5080755;28;20043;-68
2023/07/26 07:39:58;;;;;;;3.15;2.75;;;25.20;54.50;;;;;;5083174;28;20127;-71
2023/07/26 07:42:25;;;;;;;5.38;3.17;;;25.20;54.70;;;;;;5079805;28;20042;-69
2023/07/26 07:44:52;;;;;;;2.90;2.38;;;25.20;54.50;;;;;;5078950;28;20050;-68
2023/07/26 07:47:18;;;;;;;4.47;2.95;;;25.20;54.30;;;;;;5081226;28;20050;-68
2023/07/26 07:49:46;;;;;;;4.00;3.55;;;25.20;54.20;;;;;;5066616;28;20244;-70
2023/07/26 07:52:12;;;;;;;4.95;3.65;;;25.20;54.00;;;;;;5075947;28;20047;-69
2023/07/26 07:54:38;;;;;;;5.20;2.88;;;25.10;53.80;;;;;;5079005;28;20032;-69
2023/07/26 07:57:04;;;;;;;6.28;3.15;;;25.10;53.70;;;;;;5072434;28;20033;-72
2023/07/26 07:59:30;;;;;;;4.40;3.10;;;25.20;53.60;;;;;;5081408;28;20100;-68
2023/07/26 08:01:56;;;;;;;3.85;2.65;;;25.40;53.20;;;;;;5079606;28;20036;-70
2023/07/26 08:04:22;;;;;;;3.95;3.42;;;25.50;52.90;;;;;;5081104;28;20088;-67
2023/07/26 08:06:48;;;;;;;5.38;3.22;;;25.80;52.70;;;;;;5085484;28;20416;-69
2023/07/26 08:09:14;;;;;;;3.70;2.75;;;26.00;52.30;;;;;;5082692;28;20105;-68
2023/07/26 08:11:40;;;;;;;6.72;3.42;;;26.10;51.90;;;;;;5081432;28;20047;-70
2023/07/26 08:14:07;;;;;;;4.13;2.88;;;26.20;51.70;;;;;;5078183;28;20519;-68
2023/07/26 08:16:33;;;;;;;3.67;3.15;;;26.20;51.60;;;;;;5077640;28;20548;-68
2023/07/26 08:19:01;;;;;;;6.13;3.63;;;26.30;51.50;;;;;;5074156;28;20395;-71
2023/07/26 08:21:27;;;;;;;5.40;3.65;;;26.40;51.30;;;;;;5075255;28;20036;-71
2023/07/26 08:23:53;;;;;;;4.93;4.43;;;26.40;51.20;;;;;;5069654;28;20044;-72
2023/07/26 08:26:19;;;;;;;4.00;3.25;;;26.40;51.30;;;;;;5084042;28;20038;-68
2023/07/26 08:28:45;;;;;;;4.13;3.58;;;26.40;51.40;;;;;;5081676;28;20089;-69
2023/07/26 08:31:11;;;;;;;5.00;3.70;;;26.30;51.30;;;;;;5077702;28;20095;-69
2023/07/26 08:33:37;;;;;;;5.88;3.72;;;26.30;51.30;;;;;;5073011;28;20044;-74
2023/07/26 08:36:03;;;;;;;4.45;3.13;;;26.30;51.30;;;;;;5079323;28;20032;-76
2023/07/26 08:38:29;;;;;;;4.20;3.30;;;26.30;51.30;;;;;;5079285;28;20128;-69
2023/07/26 08:40:55;;;;;;;4.72;3.85;;;26.30;51.30;;;;;;5077118;28;20126;-68
2023/07/26 08:43:23;;;;;;;4.22;3.58;;;26.20;51.20;;;;;;5078536;28;20058;-69
2023/07/26 08:45:50;;;;;;;4.13;3.70;;;26.20;51.20;;;;;;5074352;28;20040;-69
2023/07/26 08:48:18;;;;;;;4.43;4.03;;;26.10;51.20;;;;;;5079941;28;20403;-70
2023/07/26 08:50:44;;;;;;;6.28;4.15;;;26.10;51.10;;;;;;5098219;28;20662;-69
2023/07/26 08:53:11;;;;;;;5.15;4.63;;;26.10;51.00;;;;;;5091273;28;20032;-69
2023/07/26 08:55:37;;;;;;;4.90;4.30;;;26.20;50.90;;;;;;5076056;28;20040;-69
2023/07/26 08:58:05;;;;;;;7.00;4.63;;;26.20;50.70;;;;;;5076742;28;20024;-68
2023/07/26 09:00:31;;;;;;;5.13;4.28;;;26.30;50.60;;;;;;5098103;28;20063;-71
2023/07/26 09:03:02;;;;;;;6.38;4.85;;;26.40;50.10;;;;;;5073350;28;20048;-71
2023/07/26 09:05:28;;;;;;;4.85;4.35;;;26.40;49.80;;;;;;5077388;28;20054;-72
2023/07/26 09:07:54;;;;;;;7.05;5.05;;;26.40;49.70;;;;;;5077540;28;20104;-72
2023/07/26 09:10:25;;;;;;;5.38;4.38;;;26.50;49.70;;;;;;5077607;28;20081;-77
2023/07/26 09:12:51;;;;;;;6.40;4.88;;;26.60;49.70;;;;;;5075700;28;20400;-70
2023/07/26 09:15:19;;;;;;;4.88;4.18;;;26.70;49.60;;;;;;5075985;28;20568;-78
2023/07/26 09:17:45;;;;;;;7.97;5.10;;;26.80;49.50;;;;;;5069830;28;20624;-76
2023/07/26 09:20:22;;;;;;;6.30;5.22;;;27.00;49.20;;;;;;5076497;28;20395;-74
2023/07/26 09:23:05;;;;;;;4.78;4.28;;;27.30;48.70;;;;;;5082156;28;20044;-79
2023/07/26 09:25:37;;;;;;;6.80;4.40;;;27.50;48.30;;;;;;5069999;28;20036;-76
2023/07/26 09:28:04;;;;;;;5.53;4.55;;;27.70;47.90;;;;;;5078737;28;20480;-80
2023/07/26 09:30:36;;;;;;;7.05;5.22;;;27.80;47.80;;;;;;5076650;28;20503;-68
2023/07/26 09:33:03;;;;;;;5.22;4.72;;;27.90;47.50;;;;;;5078271;28;20509;-70
2023/07/26 09:35:32;;;;;;;6.22;3.83;;;28.00;47.30;;;;;;5077775;28;20048;-70
2023/07/26 09:38:08;;;;;;;6.57;4.60;;;28.00;46.90;;;;;;5076448;28;20100;-68
2023/07/26 09:40:34;;;;;;;5.65;4.60;;;28.10;46.70;;;;;;5075372;28;20052;-68
2023/07/26 09:43:01;;;;;;;5.70;4.15;;;28.10;46.50;;;;;;5078605;28;20047;-70
2023/07/26 09:45:27;;;;;;;5.53;4.07;;;28.10;46.10;;;;;;5077517;28;20032;-68
2023/07/26 09:48:10;;;;;;;5.10;3.88;;;28.10;45.90;;;;;;5076144;28;20043;-69
2023/07/26 09:50:37;;;;;;;9.80;4.40;;;28.20;45.70;;;;;;5068360;28;20484;-68
2023/07/26 09:53:06;;;;;;;8.32;4.03;;;28.20;45.80;;;;;;5076167;28;20527;-71
2023/07/26 09:55:33;;;;;;;6.50;4.00;;;28.30;45.50;;;;;;5074822;28;20087;-69
2023/07/26 09:58:00;;;;;;;4.30;3.53;;;28.40;45.50;;;;;;5078508;28;20111;-71
2023/07/26 10:00:28;;;;;;;5.40;3.50;;;28.50;45.30;;;;;;5070601;28;20120;-70
2023/07/26 10:02:57;;;;;;;3.65;3.28;;;28.60;45.20;;;;;;5082143;28;20074;-71
2023/07/26 10:05:26;;;;;;;4.78;4.28;;;28.70;45.20;;;;;;5090127;28;20484;-72
2023/07/26 10:07:53;;;;;;;6.25;3.25;;;28.70;45.10;;;;;;5085208;28;20044;-69
2023/07/26 10:10:21;;;;;;;4.85;4.32;;;28.80;45.10;;;;;;5077853;28;20059;-68
2023/07/26 10:12:50;;;;;;;5.47;4.35;;;28.90;45.10;;;;;;5089281;28;20872;-73
2023/07/26 10:15:17;;;;;;;3.78;3.40;;;28.90;45.00;;;;;;5091503;28;20042;-72
2023/07/26 10:17:50;;;;;;;4.68;3.45;;;29.00;44.80;;;;;;5081624;28;20063;-69
2023/07/26 10:20:16;;;;;;;4.65;3.67;;;29.10;44.60;;;;;;5079319;28;20129;-69
2023/07/26 10:22:43;;;;;;;5.60;3.53;;;29.10;44.60;;;;;;5075202;28;20389;-69
2023/07/26 10:25:10;;;;;;;5.38;3.50;;;29.20;44.60;;;;;;5076454;28;20394;-75
2023/07/26 10:27:37;;;;;;;3.30;2.97;;;29.20;44.50;;;;;;5080978;28;20028;-72
2023/07/26 10:30:05;;;;;;;4.40;3.35;;;29.30;44.40;;;;;;5071254;28;20047;-69
2023/07/26 10:32:31;;;;;;;4.63;3.40;;;29.40;44.50;;;;;;5083284;28;20049;-71
2023/07/26 10:34:59;;;;;;;6.38;3.13;;;29.40;44.40;;;;;;5081253;28;20175;-73
2023/07/26 10:37:33;;;;;;;4.57;3.35;;;29.40;44.30;;;;;;5082184;28;20034;-69
2023/07/26 10:39:59;;;;;;;3.67;3.22;;;29.40;44.20;;;;;;5080052;28;20468;-69
2023/07/26 10:42:29;;;;;;;3.92;3.38;;;29.40;44.30;;;;;;5080399;28;20495;-69
2023/07/26 10:44:58;;;;;;;3.78;3.20;;;29.50;44.20;;;;;;5079969;28;20043;-72
2023/07/26 10:47:24;;;;;;;3.80;3.03;;;29.50;44.30;;;;;;5080078;28;20028;-68
2023/07/26 10:49:53;;;;;;;5.10;3.08;;;29.70;44.20;;;;;;5083185;28;20137;-72
2023/07/26 10:52:20;;;;;;;5.05;3.60;;;29.70;44.00;;;;;;5091374;28;20503;-68
2023/07/26 10:54:49;;;;;;;3.50;2.92;;;29.80;43.90;;;;;;5081674;28;20058;-72
2023/07/26 10:57:28;;;;;;;3.60;2.90;;;29.80;43.80;;;;;;5083408;28;20127;-68
2023/07/26 11:00:08;;;;;;;4.50;2.70;;;29.90;43.90;;;;;;5092321;28;20082;-69
2023/07/26 11:02:38;;;;;;;4.80;3.55;;;29.90;43.90;;;;;;5069464;28;20051;-75
2023/07/26 11:05:09;;;;;;;3.70;3.15;;;29.90;43.90;;;;;;5079132;28;20197;-75
2023/07/26 11:08:00;;;;;;;3.10;2.33;;;29.90;43.80;;;;;;5086845;28;20522;-76
2023/07/26 11:10:37;;;;;;;3.30;2.55;;;29.90;43.60;;;;;;5070095;28;20034;-69
2023/07/26 11:13:13;;;;;;;6.05;3.65;;;29.90;43.70;;;;;;5084410;28;20646;-73
2023/07/26 11:15:46;;;;;;;4.57;2.75;;;29.90;43.70;;;;;;5079894;28;20047;-70
2023/07/26 11:18:14;;;;;;;4.00;2.38;;;29.90;43.70;;;;;;5074863;28;20032;-73
2023/07/26 11:20:44;;;;;;;3.17;2.67;;;30.00;43.80;;;;;;5078357;28;20495;-69
2023/07/26 11:23:21;;;;;;;3.55;2.55;;;30.00;43.70;;;;;;5084332;28;20036;-70
2023/07/26 11:25:48;;;;;;;3.00;2.45;;;30.00;43.70;;;;;;5087782;28;20028;-75
2023/07/26 11:28:15;;;;;;;4.60;2.85;;;30.10;43.70;;;;;;5077237;28;20774;-69
2023/07/26 11:30:49;;;;;;;2.88;2.47;;;30.20;43.60;;;;;;5091366;28;20027;-77
2023/07/26 11:33:27;;;;;;;4.78;2.53;;;30.30;43.50;;;;;;5080965;28;20055;-74
2023/07/26 11:35:53;;;;;;;5.10;2.88;;;30.40;43.30;;;;;;5079898;28;20048;-71
2023/07/26 11:38:19;;;;;;;3.50;2.30;;;30.50;43.40;;;;;;5073046;28;20318;-73
2023/07/26 11:40:45;;;;;;;3.97;2.67;;;30.60;43.40;;;;;;5081334;28;20442;-75
2023/07/26 11:43:12;;;;;;;2.97;2.22;;;30.50;43.40;;;;;;5077441;28;20116;-77
2023/07/26 11:45:42;;;;;;;2.55;2.10;;;30.40;43.50;;;;;;5080488;28;20529;-78
2023/07/26 11:48:10;;;;;;;2.83;2.53;;;30.20;43.50;;;;;;5080663;28;20020;-71
2023/07/26 11:50:37;;;;;;;3.55;2.65;;;30.00;43.80;;;;;;5080014;28;20024;-78
2023/07/26 11:53:05;;;;;;;3.65;2.22;;;29.80;43.80;;;;;;5081778;28;20545;-71
2023/07/26 11:55:34;;;;;;;3.25;2.35;;;29.60;43.90;;;;;;5082320;28;20055;-70
2023/07/26 11:58:06;;;;;;;2.40;2.13;;;29.50;44.10;;;;;;5080501;28;20043;-77
2023/07/26 12:00:33;;;;;;;2.67;2.00;;;29.30;44.30;;;;;;5085992;28;20043;-72
2023/07/26 12:03:04;;;;;;;2.53;2.22;;;29.30;44.40;;;;;;5070581;28;20203;-73
2023/07/26 12:05:31;;;;;;;3.67;1.73;;;29.20;44.50;;;;;;5078047;28;20032;-75
2023/07/26 12:07:59;;;;;;;3.40;2.20;;;29.10;44.60;;;;;;5079263;28;20085;-74
2023/07/26 12:10:32;;;;;;;3.55;2.33;;;29.10;45.40;;;;;;5082209;28;20399;-71
2023/07/26 12:13:00;;;;;;;5.85;2.70;;;29.00;44.70;;;;;;5086251;28;20032;-72
2023/07/26 12:15:26;;;;;;;5.43;2.53;;;29.00;44.80;;;;;;5079714;28;20178;-75
2023/07/26 12:18:03;;;;;;;3.05;2.65;;;29.00;44.90;;;;;;5075119;28;20035;-76
2023/07/26 12:20:30;;;;;;;3.65;2.50;;;28.80;44.80;;;;;;5075210;28;20386;-71
2023/07/26 12:22:58;;;;;;;2.53;2.05;;;28.70;44.90;;;;;;5075063;28;20135;-72
2023/07/26 12:25:38;;;;;;;5.47;2.55;;;28.70;45.10;;;;;;5080330;28;20438;-75
2023/07/26 12:28:07;;;;;;;3.13;2.03;;;28.50;45.10;;;;;;5079279;28;20094;-68
2023/07/26 12:30:34;;;;;;;4.45;2.28;;;28.40;45.40;;;;;;5079735;28;20104;-72
2023/07/26 12:33:11;;;;;;;3.05;2.35;;;28.20;45.60;;;;;;5081124;28;20063;-71
2023/07/26 12:35:38;;;;;;;2.70;2.17;;;28.10;45.70;;;;;;5080642;28;20058;-78
2023/07/26 12:38:17;;;;;;;1.83;1.73;;;28.00;45.90;;;;;;5082351;28;20036;-71
2023/07/26 12:40:45;;;;;;;3.15;2.33;;;27.90;46.10;;;;;;5078481;28;20051;-75
2023/07/26 12:43:30;;;;;;;3.28;2.63;;;27.90;46.30;;;;;;5082079;28;20044;-73
2023/07/26 12:45:58;;;;;;;3.80;2.42;;;27.80;46.40;;;;;;5079108;28;20044;-76
2023/07/26 12:48:25;;;;;;;3.10;1.70;;;27.70;46.50;;;;;;5081192;28;20036;-74